This is the latest recevied weather packets stored in our database for station/object DB3LD. If no packets are shown the sender has not sent any weather packets the latest 10 day(s).
| Time | Temp. | Humidity | Pressure | Rain* | Wind** | Luminosity | Snow |
|---|---|---|---|---|---|---|---|
| 1778307012 | 10° C | 75% | 1022.1 hPa | 0 mm | - | 283 W/m² | - |
| 1778296815 | 4.44° C | 80% | 1022.1 hPa | 0 mm | - | 0 W/m² | - |
| 1778292014 | 6.67° C | 76% | 1022 hPa | 0 mm | - | 0 W/m² | - |
| 1778291414 | 6.67° C | 76% | 1022.2 hPa | 0 mm | - | 0 W/m² | - |
| 1778290214 | 6.67° C | 76% | 1022.1 hPa | 0 mm | - | 0 W/m² | - |
| 1778283612 | 7.78° C | 78% | 1022.1 hPa | 0 mm | - | 0 W/m² | - |
| 1778279411 | 8.33° C | 77% | 1022.3 hPa | 0 mm | - | 0 W/m² | - |
| 1778277010 | 8.89° C | 76% | 1022.2 hPa | 0 mm | - | 0 W/m² | - |
| 1778274015 | 9.44° C | 73% | 1022 hPa | 0 mm | - | 0 W/m² | - |
| 1778272815 | 9.44° C | 71% | 1021.8 hPa | 0 mm | - | 0 W/m² | - |
| 1778272214 | 9.44° C | 70% | 1021.8 hPa | 0 mm | - | 0 W/m² | - |
| 1778262613 | 13.33° C | 53% | 1020.8 hPa | 0 mm | - | 28 W/m² | - |
| 1778261412 | 13.89° C | 52% | 1020.7 hPa | 0 mm | - | 26 W/m² | - |
| 1778258412 | 14.44° C | 52% | 1020.3 hPa | 0 mm | - | 258 W/m² | - |
| 1778251215 | 15.56° C | 39% | 1020.4 hPa | 0 mm | - | 112 W/m² | - |
| 1778248214 | 16.11° C | 36% | 1020.8 hPa | 0 mm | - | 635 W/m² | - |
| 1778246414 | 15.56° C | 37% | 1021.1 hPa | 0 mm | - | 680 W/m² | - |
| 1778242813 | 16.11° C | 33% | 1021.3 hPa | 0 mm | - | 739 W/m² | - |
| 1778230215 | 14.44° C | 46% | 1021.3 hPa | 0 mm | - | 619 W/m² | - |
| 1778212211 | 1.67° C | 85% | 1020.1 hPa | 0 mm | - | 11 W/m² | - |
| 1778210410 | 1.67° C | 84% | 1020.1 hPa | 0 mm | - | 0 W/m² | - |
| 1778208015 | 2.22° C | 82% | 1020 hPa | 0 mm | - | 0 W/m² | - |
| 1778206215 | 2.22° C | 81% | 1019.9 hPa | 0 mm | - | 0 W/m² | - |
| 1778203214 | 3.33° C | 79% | 1019.8 hPa | 0 mm | - | 0 W/m² | - |
| 1778202014 | 3.33° C | 79% | 1019.8 hPa | 0 mm | - | 0 W/m² | - |
* Rain latest hour (hover to see other rain measurements)
** Current wind speed in m/s (hover to see current wind gust speed)